sensor_id;sensor_type;location;lat;lon;timestamp;P1;durP1;ratioP1;P2;durP2;ratioP2
73642;SDS011;61938;48.652;9.292;2024-03-17T00:02:05;16.70;;;8.90;;
73642;SDS011;61938;48.652;9.292;2024-03-17T00:04:30;17.20;;;9.20;;
73642;SDS011;61938;48.652;9.292;2024-03-17T00:06:56;17.17;;;8.77;;
73642;SDS011;61938;48.652;9.292;2024-03-17T00:09:22;14.70;;;8.27;;
73642;SDS011;61938;48.652;9.292;2024-03-17T00:11:49;17.73;;;7.72;;
73642;SDS011;61938;48.652;9.292;2024-03-17T00:14:14;16.20;;;8.15;;
73642;SDS011;61938;48.652;9.292;2024-03-17T00:16:41;12.50;;;6.88;;
73642;SDS011;61938;48.652;9.292;2024-03-17T00:19:06;12.88;;;6.88;;
73642;SDS011;61938;48.652;9.292;2024-03-17T00:21:32;14.63;;;7.75;;
73642;SDS011;61938;48.652;9.292;2024-03-17T00:23:57;11.40;;;6.85;;
73642;SDS011;61938;48.652;9.292;2024-03-17T00:26:23;12.60;;;7.38;;
73642;SDS011;61938;48.652;9.292;2024-03-17T00:28:48;11.65;;;6.75;;
73642;SDS011;61938;48.652;9.292;2024-03-17T00:31:16;15.43;;;7.80;;
73642;SDS011;61938;48.652;9.292;2024-03-17T00:33:41;11.25;;;6.68;;
73642;SDS011;61938;48.652;9.292;2024-03-17T00:36:07;11.98;;;6.43;;
73642;SDS011;61938;48.652;9.292;2024-03-17T00:38:32;11.82;;;7.00;;
73642;SDS011;61938;48.652;9.292;2024-03-17T00:40:58;13.25;;;7.45;;
73642;SDS011;61938;48.652;9.292;2024-03-17T00:43:24;12.90;;;7.03;;
73642;SDS011;61938;48.652;9.292;2024-03-17T00:45:53;13.07;;;6.75;;
73642;SDS011;61938;48.652;9.292;2024-03-17T00:48:18;14.52;;;7.63;;
73642;SDS011;61938;48.652;9.292;2024-03-17T00:50:44;13.00;;;7.15;;
73642;SDS011;61938;48.652;9.292;2024-03-17T00:53:13;12.88;;;6.97;;
73642;SDS011;61938;48.652;9.292;2024-03-17T00:55:39;12.07;;;7.18;;
73642;SDS011;61938;48.652;9.292;2024-03-17T00:58:04;16.88;;;8.00;;
73642;SDS011;61938;48.652;9.292;2024-03-17T01:00:31;12.98;;;7.55;;
73642;SDS011;61938;48.652;9.292;2024-03-17T01:02:58;13.25;;;6.82;;
73642;SDS011;61938;48.652;9.292;2024-03-17T01:05:23;12.00;;;6.70;;
73642;SDS011;61938;48.652;9.292;2024-03-17T01:07:49;11.02;;;7.07;;
73642;SDS011;61938;48.652;9.292;2024-03-17T01:10:14;12.75;;;6.65;;
73642;SDS011;61938;48.652;9.292;2024-03-17T01:12:40;13.38;;;7.65;;
73642;SDS011;61938;48.652;9.292;2024-03-17T01:15:06;13.57;;;7.40;;
73642;SDS011;61938;48.652;9.292;2024-03-17T01:17:32;15.25;;;8.40;;
73642;SDS011;61938;48.652;9.292;2024-03-17T01:19:58;14.88;;;6.78;;
73642;SDS011;61938;48.652;9.292;2024-03-17T01:22:23;14.45;;;7.78;;
73642;SDS011;61938;48.652;9.292;2024-03-17T01:24:49;16.40;;;9.38;;
73642;SDS011;61938;48.652;9.292;2024-03-17T01:27:14;16.98;;;9.25;;
73642;SDS011;61938;48.652;9.292;2024-03-17T01:29:41;17.50;;;9.60;;
73642;SDS011;61938;48.652;9.292;2024-03-17T01:32:08;17.40;;;9.65;;
73642;SDS011;61938;48.652;9.292;2024-03-17T01:34:33;21.52;;;10.57;;
73642;SDS011;61938;48.652;9.292;2024-03-17T01:36:59;20.48;;;10.57;;
73642;SDS011;61938;48.652;9.292;2024-03-17T01:39:25;17.70;;;9.63;;
73642;SDS011;61938;48.652;9.292;2024-03-17T01:41:50;17.10;;;9.40;;
73642;SDS011;61938;48.652;9.292;2024-03-17T01:44:24;17.35;;;10.55;;
73642;SDS011;61938;48.652;9.292;2024-03-17T01:46:52;21.88;;;10.30;;
73642;SDS011;61938;48.652;9.292;2024-03-17T01:49:19;15.80;;;9.32;;
73642;SDS011;61938;48.652;9.292;2024-03-17T01:51:46;19.05;;;9.65;;
73642;SDS011;61938;48.652;9.292;2024-03-17T01:54:13;19.58;;;10.32;;
73642;SDS011;61938;48.652;9.292;2024-03-17T01:56:39;15.15;;;10.00;;
73642;SDS011;61938;48.652;9.292;2024-03-17T01:59:05;18.17;;;10.30;;
73642;SDS011;61938;48.652;9.292;2024-03-17T02:01:32;22.13;;;10.63;;
73642;SDS011;61938;48.652;9.292;2024-03-17T02:03:58;22.80;;;10.13;;
73642;SDS011;61938;48.652;9.292;2024-03-17T02:06:24;24.05;;;11.30;;
73642;SDS011;61938;48.652;9.292;2024-03-17T02:08:50;21.10;;;10.77;;
73642;SDS011;61938;48.652;9.292;2024-03-17T02:11:27;18.63;;;10.90;;
73642;SDS011;61938;48.652;9.292;2024-03-17T02:13:54;19.73;;;10.70;;
73642;SDS011;61938;48.652;9.292;2024-03-17T02:16:21;19.77;;;11.13;;
73642;SDS011;61938;48.652;9.292;2024-03-17T02:18:47;16.63;;;10.23;;
73642;SDS011;61938;48.652;9.292;2024-03-17T02:21:13;19.33;;;10.52;;
73642;SDS011;61938;48.652;9.292;2024-03-17T02:23:40;18.85;;;10.98;;
73642;SDS011;61938;48.652;9.292;2024-03-17T02:26:09;20.38;;;11.35;;
73642;SDS011;61938;48.652;9.292;2024-03-17T02:28:41;17.88;;;10.55;;
73642;SDS011;61938;48.652;9.292;2024-03-17T02:31:08;19.67;;;11.57;;
73642;SDS011;61938;48.652;9.292;2024-03-17T02:33:35;21.13;;;11.23;;
73642;SDS011;61938;48.652;9.292;2024-03-17T02:36:01;16.15;;;9.90;;
73642;SDS011;61938;48.652;9.292;2024-03-17T02:38:28;18.00;;;10.57;;
73642;SDS011;61938;48.652;9.292;2024-03-17T02:41:13;19.25;;;10.45;;
73642;SDS011;61938;48.652;9.292;2024-03-17T02:43:39;17.65;;;10.07;;
73642;SDS011;61938;48.652;9.292;2024-03-17T02:46:05;21.02;;;10.90;;
73642;SDS011;61938;48.652;9.292;2024-03-17T02:48:30;20.10;;;10.95;;
73642;SDS011;61938;48.652;9.292;2024-03-17T02:50:56;17.95;;;10.90;;
73642;SDS011;61938;48.652;9.292;2024-03-17T02:53:22;16.38;;;9.93;;
73642;SDS011;61938;48.652;9.292;2024-03-17T02:55:47;15.35;;;9.77;;
73642;SDS011;61938;48.652;9.292;2024-03-17T02:58:13;19.83;;;10.73;;
73642;SDS011;61938;48.652;9.292;2024-03-17T03:00:38;14.85;;;9.65;;
73642;SDS011;61938;48.652;9.292;2024-03-17T03:03:05;17.50;;;9.50;;
73642;SDS011;61938;48.652;9.292;2024-03-17T03:05:30;15.15;;;8.57;;
73642;SDS011;61938;48.652;9.292;2024-03-17T03:07:56;15.27;;;8.45;;
73642;SDS011;61938;48.652;9.292;2024-03-17T03:10:21;13.88;;;8.52;;
73642;SDS011;61938;48.652;9.292;2024-03-17T03:12:47;14.77;;;8.55;;
73642;SDS011;61938;48.652;9.292;2024-03-17T03:15:12;14.20;;;8.35;;
73642;SDS011;61938;48.652;9.292;2024-03-17T03:17:38;15.18;;;8.30;;
73642;SDS011;61938;48.652;9.292;2024-03-17T03:20:04;13.43;;;8.55;;
73642;SDS011;61938;48.652;9.292;2024-03-17T03:22:30;17.50;;;9.38;;
73642;SDS011;61938;48.652;9.292;2024-03-17T03:24:56;13.25;;;8.10;;
73642;SDS011;61938;48.652;9.292;2024-03-17T03:27:22;16.27;;;8.23;;
73642;SDS011;61938;48.652;9.292;2024-03-17T03:29:49;13.63;;;7.97;;
73642;SDS011;61938;48.652;9.292;2024-03-17T03:32:15;13.40;;;7.78;;
73642;SDS011;61938;48.652;9.292;2024-03-17T03:34:40;12.07;;;7.78;;
73642;SDS011;61938;48.652;9.292;2024-03-17T03:37:06;14.93;;;9.02;;
73642;SDS011;61938;48.652;9.292;2024-03-17T03:39:33;12.48;;;7.88;;
73642;SDS011;61938;48.652;9.292;2024-03-17T03:42:01;19.58;;;9.52;;
73642;SDS011;61938;48.652;9.292;2024-03-17T03:44:27;16.00;;;8.63;;
73642;SDS011;61938;48.652;9.292;2024-03-17T03:46:53;15.13;;;9.35;;
73642;SDS011;61938;48.652;9.292;2024-03-17T03:49:23;17.80;;;9.40;;
73642;SDS011;61938;48.652;9.292;2024-03-17T03:51:49;17.90;;;9.40;;
73642;SDS011;61938;48.652;9.292;2024-03-17T03:54:15;18.42;;;9.20;;
73642;SDS011;61938;48.652;9.292;2024-03-17T03:56:40;17.30;;;8.68;;
73642;SDS011;61938;48.652;9.292;2024-03-17T03:59:06;14.38;;;8.68;;
73642;SDS011;61938;48.652;9.292;2024-03-17T04:01:31;13.43;;;8.65;;
73642;SDS011;61938;48.652;9.292;2024-03-17T04:03:57;19.00;;;9.25;;
73642;SDS011;61938;48.652;9.292;2024-03-17T04:06:22;17.70;;;10.02;;
73642;SDS011;61938;48.652;9.292;2024-03-17T04:08:48;17.10;;;8.93;;
73642;SDS011;61938;48.652;9.292;2024-03-17T04:11:14;16.52;;;9.18;;
73642;SDS011;61938;48.652;9.292;2024-03-17T04:13:39;16.15;;;9.55;;
73642;SDS011;61938;48.652;9.292;2024-03-17T04:16:06;17.02;;;8.80;;
73642;SDS011;61938;48.652;9.292;2024-03-17T04:18:32;15.40;;;9.68;;
73642;SDS011;61938;48.652;9.292;2024-03-17T04:21:02;18.27;;;9.00;;
73642;SDS011;61938;48.652;9.292;2024-03-17T04:23:29;19.15;;;8.80;;
73642;SDS011;61938;48.652;9.292;2024-03-17T04:25:57;17.70;;;8.95;;
73642;SDS011;61938;48.652;9.292;2024-03-17T04:28:23;15.55;;;9.13;;
73642;SDS011;61938;48.652;9.292;2024-03-17T04:30:48;16.35;;;8.98;;
73642;SDS011;61938;48.652;9.292;2024-03-17T04:33:14;18.05;;;8.85;;
73642;SDS011;61938;48.652;9.292;2024-03-17T04:35:41;17.27;;;9.40;;
73642;SDS011;61938;48.652;9.292;2024-03-17T04:38:07;21.88;;;9.30;;
73642;SDS011;61938;48.652;9.292;2024-03-17T04:40:33;14.25;;;8.95;;
73642;SDS011;61938;48.652;9.292;2024-03-17T04:42:59;20.10;;;8.82;;
73642;SDS011;61938;48.652;9.292;2024-03-17T04:45:25;15.32;;;9.23;;
73642;SDS011;61938;48.652;9.292;2024-03-17T04:47:51;16.05;;;9.40;;
73642;SDS011;61938;48.652;9.292;2024-03-17T04:50:16;19.85;;;10.35;;
73642;SDS011;61938;48.652;9.292;2024-03-17T04:52:42;17.90;;;10.05;;
73642;SDS011;61938;48.652;9.292;2024-03-17T04:55:08;20.10;;;10.88;;
73642;SDS011;61938;48.652;9.292;2024-03-17T04:57:33;22.05;;;12.35;;
73642;SDS011;61938;48.652;9.292;2024-03-17T04:59:59;22.45;;;11.13;;
73642;SDS011;61938;48.652;9.292;2024-03-17T05:02:24;21.02;;;11.60;;
73642;SDS011;61938;48.652;9.292;2024-03-17T05:04:50;18.77;;;10.63;;
73642;SDS011;61938;48.652;9.292;2024-03-17T05:07:15;18.27;;;11.15;;
73642;SDS011;61938;48.652;9.292;2024-03-17T05:09:41;18.33;;;11.02;;
73642;SDS011;61938;48.652;9.292;2024-03-17T05:12:08;21.20;;;11.70;;
73642;SDS011;61938;48.652;9.292;2024-03-17T05:14:34;18.70;;;11.00;;
73642;SDS011;61938;48.652;9.292;2024-03-17T05:17:00;20.33;;;11.60;;
73642;SDS011;61938;48.652;9.292;2024-03-17T05:19:26;24.75;;;11.90;;
73642;SDS011;61938;48.652;9.292;2024-03-17T05:21:51;18.70;;;11.30;;
73642;SDS011;61938;48.652;9.292;2024-03-17T05:24:17;23.55;;;12.32;;
73642;SDS011;61938;48.652;9.292;2024-03-17T05:26:44;19.33;;;11.95;;
73642;SDS011;61938;48.652;9.292;2024-03-17T05:29:10;21.48;;;11.57;;
73642;SDS011;61938;48.652;9.292;2024-03-17T05:31:36;17.98;;;10.95;;
73642;SDS011;61938;48.652;9.292;2024-03-17T05:34:04;18.25;;;11.05;;
73642;SDS011;61938;48.652;9.292;2024-03-17T05:36:30;22.17;;;10.93;;
73642;SDS011;61938;48.652;9.292;2024-03-17T05:38:57;18.88;;;10.90;;
73642;SDS011;61938;48.652;9.292;2024-03-17T05:41:23;18.92;;;10.65;;
73642;SDS011;61938;48.652;9.292;2024-03-17T05:43:50;19.52;;;11.07;;
73642;SDS011;61938;48.652;9.292;2024-03-17T05:46:16;21.08;;;10.23;;
73642;SDS011;61938;48.652;9.292;2024-03-17T05:48:42;20.83;;;11.00;;
73642;SDS011;61938;48.652;9.292;2024-03-17T05:51:11;22.05;;;11.48;;
73642;SDS011;61938;48.652;9.292;2024-03-17T05:53:38;24.15;;;11.63;;
73642;SDS011;61938;48.652;9.292;2024-03-17T05:56:05;17.90;;;10.32;;
73642;SDS011;61938;48.652;9.292;2024-03-17T05:58:33;20.33;;;11.43;;
73642;SDS011;61938;48.652;9.292;2024-03-17T06:01:01;20.83;;;12.05;;
73642;SDS011;61938;48.652;9.292;2024-03-17T06:03:27;20.00;;;11.60;;
73642;SDS011;61938;48.652;9.292;2024-03-17T06:05:52;18.88;;;10.48;;
73642;SDS011;61938;48.652;9.292;2024-03-17T06:08:18;20.70;;;11.75;;
73642;SDS011;61938;48.652;9.292;2024-03-17T06:10:45;20.15;;;10.73;;
73642;SDS011;61938;48.652;9.292;2024-03-17T06:13:11;19.73;;;10.63;;
73642;SDS011;61938;48.652;9.292;2024-03-17T06:15:38;20.58;;;12.02;;
73642;SDS011;61938;48.652;9.292;2024-03-17T06:18:04;18.48;;;11.27;;
73642;SDS011;61938;48.652;9.292;2024-03-17T06:20:33;23.23;;;11.02;;
73642;SDS011;61938;48.652;9.292;2024-03-17T06:22:59;22.08;;;11.63;;
73642;SDS011;61938;48.652;9.292;2024-03-17T06:25:25;19.00;;;11.45;;
73642;SDS011;61938;48.652;9.292;2024-03-17T06:27:51;23.02;;;12.90;;
73642;SDS011;61938;48.652;9.292;2024-03-17T06:30:17;26.48;;;13.13;;
73642;SDS011;61938;48.652;9.292;2024-03-17T06:32:43;33.55;;;19.38;;
73642;SDS011;61938;48.652;9.292;2024-03-17T06:35:10;29.77;;;16.95;;
73642;SDS011;61938;48.652;9.292;2024-03-17T06:37:36;32.67;;;15.93;;
73642;SDS011;61938;48.652;9.292;2024-03-17T06:40:03;21.52;;;12.38;;
73642;SDS011;61938;48.652;9.292;2024-03-17T06:42:32;18.05;;;11.77;;
73642;SDS011;61938;48.652;9.292;2024-03-17T06:44:57;21.55;;;12.90;;
73642;SDS011;61938;48.652;9.292;2024-03-17T06:47:23;20.02;;;12.57;;
73642;SDS011;61938;48.652;9.292;2024-03-17T06:49:49;26.40;;;15.52;;
73642;SDS011;61938;48.652;9.292;2024-03-17T06:52:14;31.48;;;15.48;;
73642;SDS011;61938;48.652;9.292;2024-03-17T06:54:39;23.25;;;13.48;;
73642;SDS011;61938;48.652;9.292;2024-03-17T06:57:05;25.42;;;14.52;;
73642;SDS011;61938;48.652;9.292;2024-03-17T06:59:34;23.63;;;14.00;;
73642;SDS011;61938;48.652;9.292;2024-03-17T07:01:59;20.52;;;12.13;;
73642;SDS011;61938;48.652;9.292;2024-03-17T07:04:25;19.92;;;11.50;;
73642;SDS011;61938;48.652;9.292;2024-03-17T07:06:50;24.42;;;12.93;;
73642;SDS011;61938;48.652;9.292;2024-03-17T07:09:16;22.85;;;13.07;;
73642;SDS011;61938;48.652;9.292;2024-03-17T07:11:42;23.35;;;13.00;;
73642;SDS011;61938;48.652;9.292;2024-03-17T07:14:09;22.10;;;12.68;;
73642;SDS011;61938;48.652;9.292;2024-03-17T07:16:34;21.10;;;11.98;;
73642;SDS011;61938;48.652;9.292;2024-03-17T07:19:01;18.67;;;11.63;;
73642;SDS011;61938;48.652;9.292;2024-03-17T07:21:27;17.38;;;10.73;;
73642;SDS011;61938;48.652;9.292;2024-03-17T07:23:52;23.98;;;11.35;;
73642;SDS011;61938;48.652;9.292;2024-03-17T07:26:18;21.13;;;10.80;;
73642;SDS011;61938;48.652;9.292;2024-03-17T07:28:46;22.30;;;11.07;;
73642;SDS011;61938;48.652;9.292;2024-03-17T07:31:12;18.02;;;10.77;;
73642;SDS011;61938;48.652;9.292;2024-03-17T07:33:37;18.45;;;10.52;;
73642;SDS011;61938;48.652;9.292;2024-03-17T07:36:03;22.98;;;12.30;;
73642;SDS011;61938;48.652;9.292;2024-03-17T07:38:30;19.65;;;11.82;;
73642;SDS011;61938;48.652;9.292;2024-03-17T07:40:57;23.15;;;12.18;;
73642;SDS011;61938;48.652;9.292;2024-03-17T07:43:24;23.15;;;13.20;;
73642;SDS011;61938;48.652;9.292;2024-03-17T07:46:00;20.60;;;12.02;;
73642;SDS011;61938;48.652;9.292;2024-03-17T07:48:28;17.20;;;10.60;;
73642;SDS011;61938;48.652;9.292;2024-03-17T07:50:55;16.63;;;10.80;;
73642;SDS011;61938;48.652;9.292;2024-03-17T07:53:22;25.63;;;11.02;;
73642;SDS011;61938;48.652;9.292;2024-03-17T07:55:56;17.80;;;10.60;;
73642;SDS011;61938;48.652;9.292;2024-03-17T07:58:23;16.98;;;10.23;;
73642;SDS011;61938;48.652;9.292;2024-03-17T08:00:50;19.67;;;10.65;;
73642;SDS011;61938;48.652;9.292;2024-03-17T08:03:17;15.68;;;9.57;;
73642;SDS011;61938;48.652;9.292;2024-03-17T08:05:43;14.85;;;8.65;;
73642;SDS011;61938;48.652;9.292;2024-03-17T08:08:14;12.82;;;8.05;;
73642;SDS011;61938;48.652;9.292;2024-03-17T08:10:40;13.75;;;8.00;;
73642;SDS011;61938;48.652;9.292;2024-03-17T08:13:05;17.27;;;7.20;;
73642;SDS011;61938;48.652;9.292;2024-03-17T08:15:33;11.25;;;7.05;;
73642;SDS011;61938;48.652;9.292;2024-03-17T08:17:59;11.20;;;6.40;;
73642;SDS011;61938;48.652;9.292;2024-03-17T08:20:25;9.38;;;6.40;;
73642;SDS011;61938;48.652;9.292;2024-03-17T08:22:50;11.73;;;6.70;;
73642;SDS011;61938;48.652;9.292;2024-03-17T08:25:16;13.13;;;6.07;;
73642;SDS011;61938;48.652;9.292;2024-03-17T08:27:41;12.32;;;6.68;;
73642;SDS011;61938;48.652;9.292;2024-03-17T08:30:08;15.02;;;6.05;;
73642;SDS011;61938;48.652;9.292;2024-03-17T08:32:35;9.82;;;5.70;;
73642;SDS011;61938;48.652;9.292;2024-03-17T08:35:00;12.45;;;5.85;;
73642;SDS011;61938;48.652;9.292;2024-03-17T08:37:26;11.23;;;5.95;;
73642;SDS011;61938;48.652;9.292;2024-03-17T08:39:52;9.27;;;5.72;;
73642;SDS011;61938;48.652;9.292;2024-03-17T08:42:17;10.52;;;6.05;;
73642;SDS011;61938;48.652;9.292;2024-03-17T08:44:45;10.25;;;6.43;;
73642;SDS011;61938;48.652;9.292;2024-03-17T08:47:11;9.85;;;5.53;;
73642;SDS011;61938;48.652;9.292;2024-03-17T08:49:37;10.38;;;5.18;;
73642;SDS011;61938;48.652;9.292;2024-03-17T08:52:02;8.50;;;5.35;;
73642;SDS011;61938;48.652;9.292;2024-03-17T08:54:28;10.55;;;5.78;;
73642;SDS011;61938;48.652;9.292;2024-03-17T08:56:53;9.43;;;5.20;;
73642;SDS011;61938;48.652;9.292;2024-03-17T08:59:19;8.05;;;4.63;;
73642;SDS011;61938;48.652;9.292;2024-03-17T09:01:44;8.10;;;4.60;;
73642;SDS011;61938;48.652;9.292;2024-03-17T09:04:10;6.97;;;4.40;;
73642;SDS011;61938;48.652;9.292;2024-03-17T09:06:36;8.35;;;5.07;;
73642;SDS011;61938;48.652;9.292;2024-03-17T09:09:02;8.68;;;4.78;;
73642;SDS011;61938;48.652;9.292;2024-03-17T09:11:28;8.63;;;5.35;;
73642;SDS011;61938;48.652;9.292;2024-03-17T09:13:54;7.07;;;4.63;;
73642;SDS011;61938;48.652;9.292;2024-03-17T09:16:19;8.77;;;4.75;;
73642;SDS011;61938;48.652;9.292;2024-03-17T09:18:47;9.32;;;4.63;;
73642;SDS011;61938;48.652;9.292;2024-03-17T09:21:14;8.32;;;5.07;;
73642;SDS011;61938;48.652;9.292;2024-03-17T09:23:41;8.40;;;3.95;;
73642;SDS011;61938;48.652;9.292;2024-03-17T09:26:07;7.03;;;4.00;;
73642;SDS011;61938;48.652;9.292;2024-03-17T09:28:34;7.10;;;4.30;;
73642;SDS011;61938;48.652;9.292;2024-03-17T09:31:01;6.13;;;4.13;;
73642;SDS011;61938;48.652;9.292;2024-03-17T09:33:28;8.95;;;4.20;;
73642;SDS011;61938;48.652;9.292;2024-03-17T09:38:21;8.40;;;4.32;;
73642;SDS011;61938;48.652;9.292;2024-03-17T09:40:47;7.40;;;4.50;;
73642;SDS011;61938;48.652;9.292;2024-03-17T09:43:16;8.27;;;4.45;;
73642;SDS011;61938;48.652;9.292;2024-03-17T09:45:41;7.35;;;4.18;;
73642;SDS011;61938;48.652;9.292;2024-03-17T09:48:07;8.30;;;4.50;;
73642;SDS011;61938;48.652;9.292;2024-03-17T09:50:38;8.40;;;4.27;;
73642;SDS011;61938;48.652;9.292;2024-03-17T09:53:04;7.47;;;4.28;;
73642;SDS011;61938;48.652;9.292;2024-03-17T09:55:30;8.73;;;4.57;;
73642;SDS011;61938;48.652;9.292;2024-03-17T09:57:56;8.65;;;3.97;;
73642;SDS011;61938;48.652;9.292;2024-03-17T10:00:21;9.07;;;4.75;;
73642;SDS011;61938;48.652;9.292;2024-03-17T10:02:47;6.70;;;4.35;;
73642;SDS011;61938;48.652;9.292;2024-03-17T10:05:22;7.55;;;3.63;;
73642;SDS011;61938;48.652;9.292;2024-03-17T10:07:49;11.57;;;4.45;;
73642;SDS011;61938;48.652;9.292;2024-03-17T10:10:16;9.52;;;4.00;;
73642;SDS011;61938;48.652;9.292;2024-03-17T10:12:43;10.38;;;5.40;;
73642;SDS011;61938;48.652;9.292;2024-03-17T10:15:14;9.85;;;5.43;;
73642;SDS011;61938;48.652;9.292;2024-03-17T10:17:39;7.80;;;4.60;;
73642;SDS011;61938;48.652;9.292;2024-03-17T10:20:11;6.28;;;4.25;;
73642;SDS011;61938;48.652;9.292;2024-03-17T10:25:33;10.75;;;3.90;;
73642;SDS011;61938;48.652;9.292;2024-03-17T10:28:03;6.15;;;3.58;;
73642;SDS011;61938;48.652;9.292;2024-03-17T10:30:38;5.70;;;3.75;;
73642;SDS011;61938;48.652;9.292;2024-03-17T10:33:05;5.85;;;3.80;;
73642;SDS011;61938;48.652;9.292;2024-03-17T10:35:34;6.82;;;3.85;;
73642;SDS011;61938;48.652;9.292;2024-03-17T10:38:04;7.30;;;3.70;;
73642;SDS011;61938;48.652;9.292;2024-03-17T10:40:30;5.30;;;3.42;;
73642;SDS011;61938;48.652;9.292;2024-03-17T10:42:59;9.35;;;3.65;;
73642;SDS011;61938;48.652;9.292;2024-03-17T10:45:26;4.38;;;2.90;;
73642;SDS011;61938;48.652;9.292;2024-03-17T10:47:55;8.57;;;3.20;;
73642;SDS011;61938;48.652;9.292;2024-03-17T10:50:25;5.00;;;2.88;;
73642;SDS011;61938;48.652;9.292;2024-03-17T10:52:52;8.05;;;2.97;;
73642;SDS011;61938;48.652;9.292;2024-03-17T10:55:21;7.47;;;2.72;;
73642;SDS011;61938;48.652;9.292;2024-03-17T10:57:51;10.02;;;3.13;;
73642;SDS011;61938;48.652;9.292;2024-03-17T11:00:19;6.20;;;2.80;;
73642;SDS011;61938;48.652;9.292;2024-03-17T11:02:47;6.80;;;2.55;;
73642;SDS011;61938;48.652;9.292;2024-03-17T11:07:41;5.35;;;2.72;;
73642;SDS011;61938;48.652;9.292;2024-03-17T11:10:14;6.13;;;2.83;;
73642;SDS011;61938;48.652;9.292;2024-03-17T11:12:46;5.78;;;2.63;;
73642;SDS011;61938;48.652;9.292;2024-03-17T11:17:44;5.65;;;2.83;;
73642;SDS011;61938;48.652;9.292;2024-03-17T11:20:14;5.15;;;2.80;;
73642;SDS011;61938;48.652;9.292;2024-03-17T11:22:42;6.93;;;2.80;;
73642;SDS011;61938;48.652;9.292;2024-03-17T11:27:54;4.55;;;2.85;;
73642;SDS011;61938;48.652;9.292;2024-03-17T11:39:08;5.60;;;2.55;;
73642;SDS011;61938;48.652;9.292;2024-03-17T11:41:48;5.97;;;2.70;;
73642;SDS011;61938;48.652;9.292;2024-03-17T11:51:49;4.93;;;2.85;;
73642;SDS011;61938;48.652;9.292;2024-03-17T11:54:16;8.70;;;3.33;;
73642;SDS011;61938;48.652;9.292;2024-03-17T11:56:48;6.73;;;3.17;;
73642;SDS011;61938;48.652;9.292;2024-03-17T11:59:15;7.88;;;3.30;;
73642;SDS011;61938;48.652;9.292;2024-03-17T12:01:45;6.22;;;3.05;;
73642;SDS011;61938;48.652;9.292;2024-03-17T12:04:15;6.40;;;3.40;;
73642;SDS011;61938;48.652;9.292;2024-03-17T12:06:57;5.20;;;3.13;;
73642;SDS011;61938;48.652;9.292;2024-03-17T12:09:24;6.85;;;3.20;;
73642;SDS011;61938;48.652;9.292;2024-03-17T12:12:01;5.10;;;3.30;;
73642;SDS011;61938;48.652;9.292;2024-03-17T12:14:38;5.63;;;2.78;;
73642;SDS011;61938;48.652;9.292;2024-03-17T12:17:08;7.28;;;3.55;;
73642;SDS011;61938;48.652;9.292;2024-03-17T12:19:35;6.88;;;3.28;;
73642;SDS011;61938;48.652;9.292;2024-03-17T12:22:03;5.15;;;3.53;;
73642;SDS011;61938;48.652;9.292;2024-03-17T12:24:30;8.43;;;3.28;;
73642;SDS011;61938;48.652;9.292;2024-03-17T12:26:57;13.27;;;3.65;;
73642;SDS011;61938;48.652;9.292;2024-03-17T12:29:31;9.48;;;3.40;;
73642;SDS011;61938;48.652;9.292;2024-03-17T12:32:00;6.78;;;3.17;;
73642;SDS011;61938;48.652;9.292;2024-03-17T12:34:28;5.13;;;2.63;;
73642;SDS011;61938;48.652;9.292;2024-03-17T12:36:55;6.00;;;3.30;;
73642;SDS011;61938;48.652;9.292;2024-03-17T12:39:23;7.97;;;2.65;;
73642;SDS011;61938;48.652;9.292;2024-03-17T12:44:27;4.82;;;2.65;;
73642;SDS011;61938;48.652;9.292;2024-03-17T12:46:58;7.40;;;2.63;;
73642;SDS011;61938;48.652;9.292;2024-03-17T12:49:25;4.15;;;2.20;;
73642;SDS011;61938;48.652;9.292;2024-03-17T12:51:52;5.63;;;2.80;;
73642;SDS011;61938;48.652;9.292;2024-03-17T12:54:19;5.03;;;2.60;;
73642;SDS011;61938;48.652;9.292;2024-03-17T12:56:46;7.90;;;2.53;;
73642;SDS011;61938;48.652;9.292;2024-03-17T12:59:40;5.13;;;2.85;;
73642;SDS011;61938;48.652;9.292;2024-03-17T13:02:41;3.88;;;2.70;;
73642;SDS011;61938;48.652;9.292;2024-03-17T13:05:14;4.97;;;2.80;;
73642;SDS011;61938;48.652;9.292;2024-03-17T13:07:44;7.53;;;3.20;;
73642;SDS011;61938;48.652;9.292;2024-03-17T13:10:13;4.60;;;2.83;;
73642;SDS011;61938;48.652;9.292;2024-03-17T13:12:39;5.65;;;2.92;;
73642;SDS011;61938;48.652;9.292;2024-03-17T13:15:06;5.78;;;2.72;;
73642;SDS011;61938;48.652;9.292;2024-03-17T13:17:36;5.10;;;2.60;;
73642;SDS011;61938;48.652;9.292;2024-03-17T13:20:01;4.57;;;2.42;;
73642;SDS011;61938;48.652;9.292;2024-03-17T13:22:27;8.65;;;2.95;;
73642;SDS011;61938;48.652;9.292;2024-03-17T13:24:53;5.78;;;2.20;;
73642;SDS011;61938;48.652;9.292;2024-03-17T13:27:18;3.08;;;1.95;;
73642;SDS011;61938;48.652;9.292;2024-03-17T13:29:47;4.60;;;2.03;;
73642;SDS011;61938;48.652;9.292;2024-03-17T13:32:13;9.02;;;2.53;;
73642;SDS011;61938;48.652;9.292;2024-03-17T13:34:40;2.67;;;2.00;;
73642;SDS011;61938;48.652;9.292;2024-03-17T13:37:06;2.90;;;2.05;;
73642;SDS011;61938;48.652;9.292;2024-03-17T13:39:32;4.68;;;1.70;;
73642;SDS011;61938;48.652;9.292;2024-03-17T13:41:58;4.43;;;1.90;;
73642;SDS011;61938;48.652;9.292;2024-03-17T13:44:31;6.13;;;2.03;;
73642;SDS011;61938;48.652;9.292;2024-03-17T13:46:57;7.13;;;2.25;;
73642;SDS011;61938;48.652;9.292;2024-03-17T13:49:23;4.05;;;2.10;;
73642;SDS011;61938;48.652;9.292;2024-03-17T13:51:49;5.85;;;2.28;;
73642;SDS011;61938;48.652;9.292;2024-03-17T13:54:15;8.57;;;1.88;;
73642;SDS011;61938;48.652;9.292;2024-03-17T13:56:40;4.43;;;1.70;;
73642;SDS011;61938;48.652;9.292;2024-03-17T13:59:06;2.92;;;1.65;;
73642;SDS011;61938;48.652;9.292;2024-03-17T14:01:33;3.83;;;1.88;;
73642;SDS011;61938;48.652;9.292;2024-03-17T14:03:59;4.63;;;1.80;;
73642;SDS011;61938;48.652;9.292;2024-03-17T14:06:24;3.25;;;1.60;;
73642;SDS011;61938;48.652;9.292;2024-03-17T14:08:50;3.70;;;1.65;;
73642;SDS011;61938;48.652;9.292;2024-03-17T14:11:15;3.30;;;1.60;;
73642;SDS011;61938;48.652;9.292;2024-03-17T14:13:41;5.97;;;1.50;;
73642;SDS011;61938;48.652;9.292;2024-03-17T14:16:06;4.72;;;1.70;;
73642;SDS011;61938;48.652;9.292;2024-03-17T14:18:32;4.50;;;1.50;;
73642;SDS011;61938;48.652;9.292;2024-03-17T14:20:58;4.32;;;1.58;;
73642;SDS011;61938;48.652;9.292;2024-03-17T14:23:24;5.82;;;2.40;;
73642;SDS011;61938;48.652;9.292;2024-03-17T14:25:50;9.98;;;1.95;;
73642;SDS011;61938;48.652;9.292;2024-03-17T14:28:15;5.75;;;2.10;;
73642;SDS011;61938;48.652;9.292;2024-03-17T14:30:41;2.10;;;1.40;;
73642;SDS011;61938;48.652;9.292;2024-03-17T14:33:06;7.10;;;2.10;;
73642;SDS011;61938;48.652;9.292;2024-03-17T14:35:33;5.07;;;1.77;;
73642;SDS011;61938;48.652;9.292;2024-03-17T14:37:58;2.40;;;1.35;;
73642;SDS011;61938;48.652;9.292;2024-03-17T14:40:24;3.85;;;1.67;;
73642;SDS011;61938;48.652;9.292;2024-03-17T14:42:53;4.35;;;2.17;;
73642;SDS011;61938;48.652;9.292;2024-03-17T14:45:22;3.05;;;1.52;;
73642;SDS011;61938;48.652;9.292;2024-03-17T14:47:51;5.43;;;1.52;;
73642;SDS011;61938;48.652;9.292;2024-03-17T14:50:19;3.83;;;1.30;;
73642;SDS011;61938;48.652;9.292;2024-03-17T14:52:45;3.25;;;1.52;;
73642;SDS011;61938;48.652;9.292;2024-03-17T14:55:11;3.85;;;1.77;;
73642;SDS011;61938;48.652;9.292;2024-03-17T14:57:38;4.65;;;1.55;;
73642;SDS011;61938;48.652;9.292;2024-03-17T15:00:05;6.40;;;1.63;;
73642;SDS011;61938;48.652;9.292;2024-03-17T15:02:38;2.90;;;1.40;;
73642;SDS011;61938;48.652;9.292;2024-03-17T15:05:06;1.90;;;1.27;;
73642;SDS011;61938;48.652;9.292;2024-03-17T15:07:33;5.13;;;1.75;;